createdAt,value
2023-04-03T00:02:01.318Z,0.40
2023-04-03T00:07:03.504Z,0.55
2023-04-03T00:12:05.979Z,0.38
2023-04-03T00:17:08.643Z,1.42
2023-04-03T00:22:10.989Z,0.47
2023-04-03T00:27:13.247Z,0.98
2023-04-03T00:32:15.176Z,0.90
2023-04-03T00:37:17.118Z,1.48
2023-04-03T00:42:19.390Z,0.55
2023-04-03T00:47:21.449Z,0.30
2023-04-03T00:52:27.124Z,1.10
2023-04-03T00:57:31.966Z,1.25
2023-04-03T01:02:34.303Z,0.85
2023-04-03T01:07:38.355Z,0.73
2023-04-03T01:12:46.882Z,0.60
2023-04-03T01:17:54.326Z,0.75
2023-04-03T01:23:14.503Z,0.30
2023-04-03T01:28:21.881Z,0.38
2023-04-03T01:33:23.909Z,0.30
2023-04-03T01:38:26.729Z,1.20
2023-04-03T01:43:28.641Z,0.90
2023-04-03T01:48:30.827Z,0.80
2023-04-03T01:53:32.782Z,2.03
2023-04-03T01:58:34.819Z,0.40
2023-04-03T02:03:37.097Z,1.05
2023-04-03T02:08:39.275Z,0.43
2023-04-03T02:13:41.704Z,0.50
2023-04-03T02:18:43.898Z,0.50
2023-04-03T02:23:46.213Z,0.30
2023-04-03T02:28:48.275Z,0.63
2023-04-03T02:33:50.227Z,0.45
2023-04-03T02:38:52.187Z,0.75
2023-04-03T02:43:54.309Z,0.30
2023-04-03T02:48:56.545Z,0.40
2023-04-03T02:53:58.589Z,1.58
2023-04-03T02:59:00.870Z,1.08
2023-04-03T03:04:03.129Z,0.77
2023-04-03T03:09:05.815Z,0.30
2023-04-03T03:14:08.051Z,0.65
2023-04-03T03:19:10.498Z,0.30
2023-04-03T03:24:13.584Z,0.30
2023-04-03T03:29:15.571Z,0.70
2023-04-03T03:34:17.560Z,1.00
2023-04-03T03:39:19.632Z,0.82
2023-04-03T03:44:21.996Z,1.20
2023-04-03T03:49:24.223Z,0.65
2023-04-03T03:54:26.220Z,0.60
2023-04-03T03:59:28.339Z,1.25
2023-04-03T04:04:30.465Z,0.45
2023-04-03T04:09:32.402Z,1.27
2023-04-03T04:14:34.454Z,2.42
2023-04-03T04:19:36.608Z,0.40
2023-04-03T04:24:39.839Z,0.45
2023-04-03T04:29:41.899Z,2.30
2023-04-03T04:34:43.889Z,0.35
2023-04-03T04:39:46.180Z,0.43
2023-04-03T04:44:48.028Z,0.52
2023-04-03T04:49:50.142Z,0.57
2023-04-03T04:54:51.959Z,0.60
2023-04-03T04:59:53.914Z,0.60
2023-04-03T05:04:55.946Z,0.55
2023-04-03T05:09:58.054Z,1.00
2023-04-03T05:14:59.927Z,3.58
2023-04-03T05:20:01.928Z,0.40
2023-04-03T05:25:04.142Z,2.35
2023-04-03T05:30:06.952Z,0.90
2023-04-03T05:35:09.532Z,0.85
2023-04-03T05:40:11.742Z,0.93
2023-04-03T05:45:13.604Z,1.10
2023-04-03T05:50:15.892Z,0.60
2023-04-03T05:55:18.145Z,0.52
2023-04-03T06:00:20.340Z,0.50
2023-04-03T06:05:22.152Z,0.98
2023-04-03T06:10:24.420Z,1.40
2023-04-03T06:15:27.065Z,1.13
2023-04-03T06:20:29.014Z,1.33
2023-04-03T06:25:31.019Z,1.40
2023-04-03T06:30:33.158Z,0.57
2023-04-03T06:35:36.347Z,1.60
2023-04-03T06:40:38.728Z,1.73
2023-04-03T06:45:41.147Z,1.08
2023-04-03T06:50:43.358Z,1.48
2023-04-03T06:55:45.227Z,9.13
2023-04-03T07:00:48.461Z,4.60
2023-04-03T07:05:50.753Z,5.82
2023-04-03T07:10:52.824Z,7.68
2023-04-03T07:15:55.270Z,8.35
2023-04-03T07:20:57.373Z,17.85
2023-04-03T07:25:59.723Z,21.60
2023-04-03T07:31:08.066Z,15.93
2023-04-03T07:36:12.222Z,7.85
2023-04-03T07:41:19.152Z,14.95
2023-04-03T07:46:22.175Z,5.22
2023-04-03T07:51:25.891Z,5.13
2023-04-03T07:56:27.999Z,6.15
2023-04-03T08:01:30.410Z,5.60
2023-04-03T08:06:45.730Z,2.45
2023-04-03T08:11:48.225Z,7.55
2023-04-03T08:16:50.240Z,2.05
2023-04-03T08:21:52.428Z,3.40
2023-04-03T08:26:54.643Z,1.25
2023-04-03T08:31:56.762Z,2.95
2023-04-03T08:36:58.700Z,2.47
2023-04-03T08:42:08.482Z,0.82
2023-04-03T08:47:29.386Z,2.30
2023-04-03T08:52:43.370Z,4.47
2023-04-03T08:57:47.498Z,1.10
2023-04-03T09:02:52.459Z,9.35
2023-04-03T09:08:13.285Z,2.15
2023-04-03T09:13:28.145Z,1.33
2023-04-03T09:18:41.943Z,0.52
2023-04-03T09:23:47.864Z,1.00
2023-04-03T09:28:51.119Z,2.10
2023-04-03T09:34:03.619Z,0.57
2023-04-03T09:39:17.315Z,1.83
2023-04-03T09:44:26.715Z,0.55
2023-04-03T09:49:28.855Z,1.73
2023-04-03T09:54:41.146Z,2.50
2023-04-03T10:00:00.788Z,1.05
2023-04-03T10:10:21.633Z,5.70
2023-04-03T10:15:24.506Z,1.42
2023-04-03T10:20:29.437Z,1.15
2023-04-03T10:25:42.404Z,1.38
2023-04-03T10:30:44.866Z,1.05
2023-04-03T10:36:10.587Z,1.30
2023-04-03T10:41:40.677Z,0.63
2023-04-03T10:46:51.247Z,0.47
2023-04-03T10:52:06.223Z,0.73
2023-04-03T10:57:13.538Z,0.73
2023-04-03T11:02:45.359Z,1.60
2023-04-03T11:07:52.344Z,0.50
2023-04-03T11:13:03.151Z,1.67
2023-04-03T11:18:14.225Z,0.17
2023-04-03T11:23:32.893Z,1.58
2023-04-03T11:28:41.308Z,0.60
2023-04-03T11:33:49.784Z,0.77
2023-04-03T11:38:56.249Z,1.58
2023-04-03T11:44:04.074Z,1.33
2023-04-03T11:49:06.518Z,2.28
2023-04-03T11:54:46.041Z,1.15
2023-04-03T11:59:48.231Z,4.07
2023-04-03T12:05:26.713Z,0.55
2023-04-03T12:10:32.616Z,1.38
2023-04-03T12:15:38.515Z,3.55
2023-04-03T12:20:53.446Z,1.02
2023-04-03T12:26:01.921Z,8.48
2023-04-03T12:31:06.872Z,18.10
2023-04-03T12:36:16.771Z,0.88
2023-04-03T12:41:32.205Z,0.80
2023-04-03T12:46:45.947Z,0.20
2023-04-03T12:51:48.732Z,0.52
2023-04-03T12:56:51.771Z,1.83
2023-04-03T13:02:04.044Z,1.23
2023-04-03T13:07:06.241Z,0.32
2023-04-03T13:12:14.342Z,1.20
2023-04-03T13:17:17.998Z,0.43
2023-04-03T13:22:34.887Z,0.38
2023-04-03T13:27:37.565Z,2.45
2023-04-03T13:32:39.887Z,0.20
2023-04-03T13:37:56.635Z,0.20
2023-04-03T13:43:20.502Z,1.40
2023-04-03T13:48:24.807Z,1.00
2023-04-03T13:53:28.883Z,3.80
2023-04-03T13:58:34.176Z,1.42
2023-04-03T14:03:53.028Z,0.93
2023-04-03T14:08:55.471Z,1.40
2023-04-03T14:14:01.718Z,1.23
2023-04-03T14:19:04.348Z,1.00
2023-04-03T14:24:07.125Z,1.35
2023-04-03T14:29:11.825Z,0.80
2023-04-03T14:34:14.989Z,2.67
2023-04-03T14:39:20.068Z,0.55
2023-04-03T14:44:22.414Z,0.75
2023-04-03T14:49:29.267Z,1.23
2023-04-03T14:54:31.275Z,0.88
2023-04-03T14:59:34.032Z,1.65
2023-04-03T15:04:36.054Z,1.02
2023-04-03T15:09:38.540Z,0.57
2023-04-03T15:14:51.788Z,0.40
2023-04-03T15:19:55.835Z,0.17
2023-04-03T15:24:57.810Z,0.80
2023-04-03T15:30:00.364Z,1.20
2023-04-03T15:35:03.445Z,0.52
2023-04-03T15:40:07.126Z,0.52
2023-04-03T15:45:10.003Z,0.60
2023-04-03T15:50:12.110Z,1.75
2023-04-03T15:55:14.134Z,1.75
2023-04-03T16:00:16.712Z,0.63
2023-04-03T16:05:20.196Z,0.60
2023-04-03T16:10:22.667Z,0.28
2023-04-03T16:15:26.138Z,2.70
2023-04-03T16:20:28.954Z,0.30
2023-04-03T16:25:32.288Z,3.15
2023-04-03T16:30:34.954Z,0.90
2023-04-03T16:35:37.384Z,1.88
2023-04-03T16:40:39.769Z,1.85
2023-04-03T16:45:42.206Z,6.90
2023-04-03T16:50:49.285Z,1.95
2023-04-03T16:55:52.300Z,1.13
2023-04-03T17:00:55.110Z,1.15
2023-04-03T17:05:57.451Z,0.50
2023-04-03T17:10:59.908Z,2.78
2023-04-03T17:16:06.200Z,0.40
2023-04-03T17:21:08.905Z,0.57
2023-04-03T17:26:11.052Z,0.93
2023-04-03T17:31:13.250Z,0.17
2023-04-03T17:36:15.309Z,1.15
2023-04-03T17:41:17.666Z,0.95
2023-04-03T17:46:19.738Z,0.73
2023-04-03T17:51:23.754Z,0.90
2023-04-03T17:56:27.504Z,0.63
2023-04-03T18:01:31.762Z,0.52
2023-04-03T18:06:40.369Z,1.23
2023-04-03T18:11:43.681Z,10.18
2023-04-03T18:16:45.735Z,12.27
2023-04-03T18:21:48.270Z,8.93
2023-04-03T18:27:01.374Z,14.18
2023-04-03T18:32:06.721Z,21.52
2023-04-03T18:37:08.774Z,5.05
2023-04-03T18:42:15.513Z,4.15
2023-04-03T18:47:17.373Z,9.38
2023-04-03T18:52:20.824Z,5.60
2023-04-03T18:57:23.126Z,4.57
2023-04-03T19:02:26.340Z,13.85
2023-04-03T19:07:28.780Z,1.48
2023-04-03T19:12:30.944Z,4.32
2023-04-03T19:17:33.040Z,6.88
2023-04-03T19:22:35.361Z,2.58
2023-04-03T19:27:38.618Z,5.20
2023-04-03T19:32:41.142Z,2.58
2023-04-03T19:37:43.208Z,2.55
2023-04-03T19:42:45.436Z,2.83
2023-04-03T19:47:47.789Z,2.83
2023-04-03T19:52:49.782Z,2.20
2023-04-03T19:57:52.278Z,2.17
2023-04-03T20:02:54.817Z,6.05
2023-04-03T20:07:57.174Z,1.88
2023-04-03T20:12:59.207Z,1.40
2023-04-03T20:18:01.689Z,2.38
2023-04-03T20:23:03.774Z,0.93
2023-04-03T20:28:05.888Z,1.55
2023-04-03T20:33:08.111Z,6.68
2023-04-03T20:38:10.269Z,1.42
2023-04-03T20:43:12.990Z,2.42
2023-04-03T20:48:15.439Z,4.00
2023-04-03T20:53:19.449Z,4.63
2023-04-03T20:58:21.340Z,2.30
2023-04-03T21:03:25.561Z,2.20
2023-04-03T21:09:07.730Z,2.78
2023-04-03T21:14:48.647Z,3.50
2023-04-03T21:19:50.887Z,2.92
2023-04-03T21:24:53.154Z,2.55
2023-04-03T21:29:56.630Z,1.25
2023-04-03T21:34:58.714Z,2.95
2023-04-03T21:40:00.846Z,2.63
2023-04-03T21:45:03.068Z,1.52
2023-04-03T21:50:05.330Z,1.17
2023-04-03T21:55:09.026Z,1.25
2023-04-03T22:00:11.254Z,1.48
2023-04-03T22:05:13.255Z,3.33
2023-04-03T22:10:16.276Z,1.13
2023-04-03T22:15:18.728Z,1.05
2023-04-03T22:20:21.101Z,2.47
2023-04-03T22:25:22.915Z,1.05
2023-04-03T22:30:24.953Z,1.05
2023-04-03T22:35:27.967Z,0.80
2023-04-03T22:40:30.018Z,1.40
2023-04-03T22:45:32.482Z,0.50
2023-04-03T22:50:37.484Z,0.70
2023-04-03T22:55:39.702Z,4.47
2023-04-03T23:00:42.073Z,0.88
2023-04-03T23:05:44.449Z,0.40
2023-04-03T23:10:46.689Z,0.40
2023-04-03T23:15:56.005Z,2.63
2023-04-03T23:21:01.842Z,1.75
2023-04-03T23:26:03.914Z,1.65
2023-04-03T23:31:10.720Z,1.02
2023-04-03T23:36:13.767Z,0.50
2023-04-03T23:41:15.654Z,1.85
2023-04-03T23:46:18.562Z,0.52
2023-04-03T23:51:21.110Z,1.02
2023-04-03T23:56:23.285Z,1.42
